Time;durP1;ratioP1;P1;durP2;ratioP2;P2;SDS_P1;SDS_P2;PMS_P1;PMS_P2;Temp;Humidity;BMP_temperature;BMP_pressure;BME280_temperature;BME280_humidity;BME280_pressure;Samples;Min_cycle;Max_cycle;Signal;HPM_P1;HPM_P2
2021/12/04 00:02:08;;;;;;;14.25;9.65;;;;;;;1.23;68.26;98737.48;1689127;83;20999;-69
2021/12/04 00:04:37;;;;;;;15.98;10.23;;;;;;;1.22;68.16;98738.94;1699243;83;20947;-69
2021/12/04 00:07:05;;;;;;;13.43;9.63;;;;;;;1.23;68.06;98744.03;1693572;83;20970;-70
2021/12/04 00:09:32;;;;;;;13.50;9.88;;;;;;;1.21;67.97;98742.03;1692642;83;21011;-69
2021/12/04 00:14:25;;;;;;;14.10;9.70;;;;;;;1.20;67.78;98741.66;1696795;83;21611;-69
2021/12/04 00:16:52;;;;;;;12.68;9.13;;;;;;;1.20;67.66;98746.06;1689721;83;21465;-71
2021/12/04 00:19:18;;;;;;;11.12;8.83;;;;;;;1.19;67.58;98743.12;1695652;83;20983;-69
2021/12/04 00:21:45;;;;;;;12.53;8.88;;;;;;;1.18;67.53;98740.13;1691896;83;21127;-70
2021/12/04 00:24:12;;;;;;;11.75;9.28;;;;;;;1.17;67.46;98743.73;1702204;83;21166;-70
2021/12/04 00:26:38;;;;;;;13.68;9.25;;;;;;;1.18;67.41;98743.59;1699242;83;21077;-71
2021/12/04 00:29:05;;;;;;;12.37;9.80;;;;;;;1.18;67.39;98744.06;1696450;83;21333;-70
2021/12/04 00:31:32;;;;;;;14.07;9.23;;;;;;;1.18;67.33;98742.28;1690327;83;21125;-71
2021/12/04 00:33:59;;;;;;;13.40;9.93;;;;;;;1.17;67.26;98737.98;1704396;83;20997;-70
2021/12/04 00:43:20;;;;;;;13.95;9.38;;;;;;;1.13;67.18;98730.52;1695931;83;20970;-69
2021/12/04 00:50:00;;;;;;;13.55;8.78;;;;;;;1.08;66.91;98726.98;1697527;83;21170;-71
2021/12/04 00:52:26;;;;;;;15.93;10.20;;;;;;;1.07;66.85;98723.20;1689012;83;21002;-70
2021/12/04 00:54:53;;;;;;;13.25;10.25;;;;;;;1.07;66.84;98729.75;1698720;83;21551;-71
2021/12/04 00:57:20;;;;;;;13.13;9.03;;;;;;;1.09;66.82;98729.13;1693761;83;21011;-70
2021/12/04 00:59:46;;;;;;;15.38;10.20;;;;;;;1.10;66.79;98731.61;1698804;83;20995;-71
2021/12/04 01:02:12;;;;;;;13.13;9.98;;;;;;;1.11;66.73;98732.45;1688174;83;21258;-70
2021/12/04 01:04:39;;;;;;;14.75;9.55;;;;;;;1.14;66.62;98733.50;1698925;83;20935;-70
2021/12/04 01:07:06;;;;;;;14.55;10.35;;;;;;;1.14;66.45;98740.05;1699468;83;21026;-71
2021/12/04 01:09:34;;;;;;;13.95;9.43;;;;;;;1.13;66.35;98739.22;1698107;83;20958;-69
2021/12/04 01:12:01;;;;;;;11.40;8.13;;;;;;;1.11;66.33;98739.84;1694435;83;21580;-70
2021/12/04 01:14:28;;;;;;;17.27;9.63;;;;;;;1.08;66.41;98733.53;1694224;83;21255;-69
2021/12/04 01:16:55;;;;;;;13.03;8.75;;;;;;;1.08;66.44;98730.92;1690696;83;20984;-71
2021/12/04 01:19:21;;;;;;;11.73;9.48;;;;;;;1.08;66.35;98727.46;1695687;83;21002;-68
2021/12/04 01:21:49;;;;;;;15.20;9.63;;;;;;;1.07;66.39;98727.94;1691959;83;21054;-68
2021/12/04 01:24:16;;;;;;;15.72;10.28;;;;;;;1.09;66.36;98722.11;1694401;83;21062;-69
2021/12/04 01:26:42;;;;;;;13.93;9.58;;;;;;;1.09;66.27;98725.20;1698525;83;21142;-69
2021/12/04 01:29:08;;;;;;;13.32;10.53;;;;;;;1.09;66.28;98723.90;1690509;83;20908;-70
2021/12/04 01:31:35;;;;;;;13.75;9.28;;;;;;;1.10;66.23;98719.83;1694775;83;21516;-68
2021/12/04 01:34:01;;;;;;;17.45;10.82;;;;;;;1.08;66.20;98720.44;1697287;83;21536;-69
2021/12/04 01:36:29;;;;;;;15.20;9.00;;;;;;;1.11;66.15;98719.35;1683532;83;21026;-68
2021/12/04 01:38:55;;;;;;;12.05;9.23;;;;;;;1.13;66.08;98724.81;1693290;83;21067;-69
2021/12/04 01:41:22;;;;;;;22.55;12.65;;;;;;;1.12;66.02;98723.14;1693566;83;21559;-69
2021/12/04 01:43:48;;;;;;;38.25;20.88;;;;;;;1.09;66.07;98719.97;1684419;83;21215;-69
2021/12/04 01:46:14;;;;;;;36.08;18.77;;;;;;;1.09;66.02;98724.73;1687072;83;21494;-70
2021/12/04 01:48:41;;;;;;;27.62;14.15;;;;;;;1.08;66.03;98723.53;1697240;83;20951;-70
2021/12/04 01:51:07;;;;;;;17.62;12.20;;;;;;;1.08;66.04;98724.37;1697054;83;21092;-69
2021/12/04 01:53:33;;;;;;;19.20;11.90;;;;;;;1.10;65.91;98725.06;1692216;83;21460;-70
2021/12/04 01:56:00;;;;;;;17.05;11.70;;;;;;;1.07;65.88;98721.39;1690013;83;21041;-69
2021/12/04 01:58:28;;;;;;;16.02;11.30;;;;;;;1.02;65.88;98731.42;1695983;83;21043;-69
2021/12/04 02:00:54;;;;;;;17.12;10.95;;;;;;;1.03;65.89;98730.95;1693090;83;21002;-70
2021/12/04 02:03:21;;;;;;;14.55;10.48;;;;;;;1.02;65.90;98737.13;1695248;83;21974;-69
2021/12/04 02:05:48;;;;;;;15.35;10.18;;;;;;;1.00;65.95;98739.89;1692907;83;20955;-68
2021/12/04 02:08:18;;;;;;;14.55;9.75;;;;;;;1.00;65.91;98746.45;1701021;83;20907;-71
2021/12/04 02:10:45;;;;;;;13.22;9.93;;;;;;;0.97;65.89;98745.86;1696038;83;20923;-69
2021/12/04 02:13:12;;;;;;;13.20;9.43;;;;;;;0.92;65.88;98743.63;1692428;83;21037;-69
2021/12/04 02:15:39;;;;;;;12.60;9.00;;;;;;;0.93;65.92;98749.23;1690815;83;21904;-69
2021/12/04 02:18:07;;;;;;;13.98;9.50;;;;;;;0.90;65.86;98748.17;1694024;83;21028;-70
2021/12/04 02:20:34;;;;;;;12.33;9.70;;;;;;;0.86;65.84;98749.36;1692220;83;21006;-69
2021/12/04 02:23:02;;;;;;;14.40;10.05;;;;;;;0.84;65.95;98753.91;1697213;83;21102;-69
2021/12/04 02:25:30;;;;;;;13.83;9.18;;;;;;;0.85;66.01;98754.27;1698925;83;20955;-71
2021/12/04 02:27:56;;;;;;;10.98;8.93;;;;;;;0.84;66.05;98749.98;1695899;83;21855;-71
2021/12/04 02:30:25;;;;;;;14.25;9.53;;;;;;;0.83;65.99;98748.34;1691804;83;20923;-71
2021/12/04 02:32:52;;;;;;;14.93;9.90;;;;;;;0.83;66.06;98745.72;1690511;83;21005;-70
2021/12/04 02:35:19;;;;;;;18.27;10.88;;;;;;;0.84;66.09;98750.45;1703260;83;21481;-71
2021/12/04 02:37:46;;;;;;;13.38;9.58;;;;;;;0.85;66.05;98751.66;1691209;83;21066;-70
2021/12/04 02:40:17;;;;;;;11.93;8.78;;;;;;;0.83;65.98;98750.95;1696998;83;21927;-71
2021/12/04 02:42:44;;;;;;;12.45;9.58;;;;;;;0.83;65.97;98752.73;1689275;83;20907;-70
2021/12/04 02:45:12;;;;;;;12.15;9.20;;;;;;;0.80;66.00;98752.52;1691744;83;21026;-70
2021/12/04 02:47:38;;;;;;;13.13;9.05;;;;;;;0.79;65.94;98760.00;1689550;83;21072;-71
2021/12/04 02:50:07;;;;;;;13.62;8.95;;;;;;;0.77;65.93;98759.31;1697975;83;20962;-71
2021/12/04 02:52:36;;;;;;;12.15;8.23;;;;;;;0.74;65.86;98754.80;1688904;83;21018;-70
2021/12/04 02:55:04;;;;;;;13.13;8.83;;;;;;;0.69;65.90;98751.72;1698357;83;21671;-70
2021/12/04 02:57:32;;;;;;;13.80;8.43;;;;;;;0.63;65.95;98756.98;1698249;83;20939;-70
2021/12/04 02:59:58;;;;;;;12.65;9.33;;;;;;;0.61;65.99;98749.73;1690731;83;21078;-70
2021/12/04 03:02:25;;;;;;;10.63;9.08;;;;;;;0.59;66.07;98751.66;1692529;83;20953;-70
2021/12/04 03:04:55;;;;;;;12.10;8.38;;;;;;;0.59;66.08;98756.89;1690936;83;21864;-71
2021/12/04 03:07:21;;;;;;;11.88;9.40;;;;;;;0.57;66.03;98751.76;1688525;83;21109;-71
2021/12/04 03:09:48;;;;;;;11.75;9.15;;;;;;;0.55;66.03;98751.53;1691614;83;21529;-71
2021/12/04 03:12:18;;;;;;;10.90;8.28;;;;;;;0.51;66.12;98748.83;1689294;83;21182;-70
2021/12/04 03:14:46;;;;;;;14.50;9.15;;;;;;;0.50;66.11;98751.08;1687169;83;20959;-71
2021/12/04 03:17:16;;;;;;;12.28;8.98;;;;;;;0.49;66.14;98754.20;1685997;83;21229;-70
2021/12/04 03:19:42;;;;;;;12.07;9.63;;;;;;;0.50;66.10;98749.77;1685731;83;20999;-71
2021/12/04 03:22:09;;;;;;;13.50;10.65;;;;;;;0.47;66.12;98751.36;1685139;83;21568;-69
2021/12/04 03:24:39;;;;;;;11.55;9.25;;;;;;;0.48;66.07;98749.08;1688034;83;21607;-71
2021/12/04 03:27:04;;;;;;;14.25;9.38;;;;;;;0.48;66.03;98745.15;1691077;83;21023;-68
2021/12/04 03:29:35;;;;;;;14.28;9.83;;;;;;;0.47;65.99;98746.13;1687933;83;22508;-69
2021/12/04 03:32:45;;;;;;;15.93;9.95;;;;;;;0.44;65.92;98748.48;1687206;83;21090;-68
2021/12/04 03:43:05;;;;;;;13.08;9.93;;;;;;;0.32;65.98;98744.25;1687767;83;21181;-72
2021/12/04 03:45:33;;;;;;;14.58;9.90;;;;;;;0.28;65.99;98745.47;1691664;83;20946;-70
2021/12/04 03:50:35;;;;;;;13.50;9.53;;;;;;;0.26;66.04;98749.97;1637886;83;21020;-69
2021/12/04 03:53:01;;;;;;;13.62;9.35;;;;;;;0.24;66.10;98749.73;1692277;83;21580;-70
2021/12/04 03:55:28;;;;;;;13.05;9.45;;;;;;;0.23;66.07;98753.33;1690706;83;21155;-68
2021/12/04 03:57:54;;;;;;;13.32;9.33;;;;;;;0.20;66.12;98753.09;1700894;83;20963;-70
2021/12/04 04:00:23;;;;;;;10.65;8.30;;;;;;;0.17;66.21;98744.66;1689417;83;21062;-69
2021/12/04 04:02:50;;;;;;;10.65;8.55;;;;;;;0.16;66.21;98743.81;1689623;83;20919;-70
2021/12/04 04:05:17;;;;;;;13.95;8.58;;;;;;;0.16;66.31;98744.31;1705733;83;21023;-69
2021/12/04 04:07:43;;;;;;;11.80;9.15;;;;;;;0.16;66.30;98741.70;1694455;83;21166;-69
2021/12/04 04:10:10;;;;;;;11.12;8.38;;;;;;;0.19;66.27;98744.05;1693428;83;21063;-69
2021/12/04 04:12:36;;;;;;;14.33;9.40;;;;;;;0.18;66.22;98748.95;1688511;83;21541;-68
2021/12/04 04:15:05;;;;;;;11.65;8.53;;;;;;;0.20;66.14;98747.03;1700808;83;21522;-69
2021/12/04 04:17:41;;;;;;;12.78;8.50;;;;;;;0.21;66.04;98752.63;1688084;83;20959;-71
2021/12/04 04:20:03;;;;;;;13.50;9.78;;;;;;;0.25;65.92;98747.02;1690303;83;21198;-69
2021/12/04 04:22:30;;;;;;;13.25;9.13;;;;;;;0.26;65.75;98745.23;1696828;83;20935;-69
2021/12/04 04:24:56;;;;;;;10.20;8.38;;;;;;;0.23;65.63;98751.55;1691061;83;21062;-70
2021/12/04 04:27:23;;;;;;;12.23;8.20;;;;;;;0.22;65.61;98744.64;1699507;83;20979;-69
2021/12/04 04:29:49;;;;;;;11.25;8.45;;;;;;;0.21;65.63;98735.63;1680846;83;21503;-70
2021/12/04 04:32:17;;;;;;;12.37;7.92;;;;;;;0.23;65.57;98733.70;1695702;83;21178;-70
2021/12/04 04:34:50;;;;;;;10.00;8.18;;;;;;;0.23;65.52;98737.63;1693524;83;21075;-71
2021/12/04 04:37:22;;;;;;;12.58;8.73;;;;;;;0.25;65.52;98733.10;1697392;83;21479;-70
2021/12/04 04:40:16;;;;;;;17.45;8.40;;;;;;;0.26;65.43;98736.89;1698330;83;21066;-71
2021/12/04 05:12:27;;;;;;;15.43;10.48;;;;;;;0.27;64.75;98732.02;1663398;85;20913;-68
2021/12/04 05:14:58;;;;;;;18.45;11.18;;;;;;;0.26;64.77;98723.00;1667591;85;20905;-70
2021/12/04 05:17:42;;;;;;;14.98;10.90;;;;;;;0.26;64.66;98728.23;1667537;85;20952;-70
2021/12/04 05:19:59;;;;;;;12.18;9.30;;;;;;;0.26;64.66;98735.58;1675530;85;21023;-69
2021/12/04 05:22:25;;;;;;;15.70;8.63;;;;;;;0.29;64.60;98735.34;1675122;85;20911;-70
2021/12/04 05:24:52;;;;;;;11.75;8.50;;;;;;;0.30;64.51;98734.86;1640619;87;21907;-70
2021/12/04 05:27:18;;;;;;;14.25;7.87;;;;;;;0.32;64.43;98731.64;1640086;86;21010;-70
2021/12/04 05:29:45;;;;;;;10.95;8.58;;;;;;;0.32;64.37;98729.02;1641410;87;21016;-72
2021/12/04 05:32:11;;;;;;;10.25;7.40;;;;;;;0.30;64.29;98732.25;1638674;87;21030;-71
2021/12/04 05:34:38;;;;;;;10.80;7.75;;;;;;;0.31;64.16;98726.91;1635377;87;21014;-69
2021/12/04 05:37:05;;;;;;;11.90;8.35;;;;;;;0.30;64.14;98720.47;1640371;87;21162;-71
2021/12/04 05:39:31;;;;;;;12.35;8.50;;;;;;;0.30;64.12;98721.78;1672246;85;20952;-71
2021/12/04 05:41:59;;;;;;;11.30;7.30;;;;;;;0.29;63.93;98726.18;1671628;85;21006;-69
2021/12/04 05:44:26;;;;;;;12.70;7.30;;;;;;;0.24;63.86;98728.34;1670681;85;21011;-70
2021/12/04 05:47:21;;;;;;;13.18;7.72;;;;;;;0.21;63.94;98728.58;1623181;86;20920;-70
2021/12/04 05:49:26;;;;;;;9.53;7.70;;;;;;;0.20;63.96;98731.33;1649290;85;21132;-72
2021/12/04 05:56:51;;;;;;;11.48;8.33;;;;;;;0.15;64.00;98723.03;1664827;85;20971;-72
2021/12/04 05:59:17;;;;;;;12.18;8.35;;;;;;;0.14;64.03;98722.66;1658838;85;20955;-70
2021/12/04 06:01:44;;;;;;;11.83;7.80;;;;;;;0.16;64.03;98728.63;1669769;85;21179;-71
2021/12/04 06:04:11;;;;;;;13.13;7.92;;;;;;;0.17;63.98;98719.80;1674363;85;20976;-70
2021/12/04 06:06:37;;;;;;;9.50;7.55;;;;;;;0.16;64.03;98720.78;1691446;83;20918;-70
2021/12/04 06:09:05;;;;;;;15.05;9.20;;;;;;;0.18;63.95;98728.02;1698019;83;21521;-71
2021/12/04 06:11:33;;;;;;;13.05;9.35;;;;;;;0.22;63.96;98734.18;1692129;83;21220;-70
2021/12/04 06:13:59;;;;;;;13.72;8.70;;;;;;;0.31;64.07;98729.53;1707781;83;21120;-70
2021/12/04 06:16:25;;;;;;;11.70;8.40;;;;;;;0.48;64.16;98722.43;1690412;83;20936;-70
2021/12/04 06:18:53;;;;;;;14.53;8.30;;;;;;;0.71;64.10;98724.45;1690105;83;21486;-72
2021/12/04 06:24:04;;;;;;;11.97;8.43;;;;;;;1.23;63.37;98719.14;1578137;89;21085;-71
2021/12/04 06:26:35;;;;;;;13.75;8.83;;;;;;;1.48;62.93;98713.13;1664668;83;21152;-71
2021/12/04 06:29:03;;;;;;;12.93;9.05;;;;;;;1.76;62.51;98713.70;1654564;86;20931;-72
2021/12/04 06:31:31;;;;;;;14.95;9.63;;;;;;;2.00;61.82;98715.98;1647843;86;21041;-72
2021/12/04 06:33:58;;;;;;;16.60;9.28;;;;;;;2.25;61.37;98718.08;1663588;85;21046;-71
2021/12/04 06:36:25;;;;;;;17.70;11.25;;;;;;;2.55;60.88;98711.89;1654634;85;20940;-70
2021/12/04 06:38:53;;;;;;;17.52;12.05;;;;;;;2.80;59.89;98713.94;1652659;86;22409;-70
2021/12/04 06:41:19;;;;;;;17.25;12.70;;;;;;;2.95;58.88;98712.53;1651078;86;21013;-72
2021/12/04 06:43:51;;;;;;;17.40;12.50;;;;;;;3.12;58.22;98711.83;1653670;85;21145;-70
2021/12/04 06:46:16;;;;;;;16.95;12.37;;;;;;;3.28;57.97;98708.61;1652163;85;21072;-71
2021/12/04 06:49:04;;;;;;;18.90;13.05;;;;;;;3.52;57.63;98709.75;1656471;85;20956;-70
2021/12/04 06:51:35;;;;;;;15.95;12.75;;;;;;;3.78;56.74;98713.05;1639248;86;21888;-71
2021/12/04 06:54:13;;;;;;;14.13;9.78;;;;;;;4.04;56.35;98704.80;1638395;86;20995;-69
2021/12/04 06:56:36;;;;;;;11.10;8.30;;;;;;;4.42;55.77;98705.02;1634559;86;20990;-69
2021/12/04 06:59:10;;;;;;;13.35;8.73;;;;;;;4.83;54.72;98709.17;1640255;86;21066;-70
2021/12/04 07:01:36;;;;;;;10.18;7.37;;;;;;;5.24;53.56;98710.28;1639333;86;21098;-73
2021/12/04 07:04:03;;;;;;;10.53;7.60;;;;;;;5.65;51.98;98715.32;1640685;86;21183;-73
2021/12/04 07:06:30;;;;;;;10.68;7.70;;;;;;;6.03;50.44;98710.05;1630883;86;21578;-73
2021/12/04 07:08:57;;;;;;;11.80;8.63;;;;;;;6.28;50.06;98707.83;1638376;86;21111;-70
2021/12/04 07:11:25;;;;;;;10.03;8.78;;;;;;;6.54;49.16;98712.51;1636946;86;22319;-74
2021/12/04 07:13:51;;;;;;;15.85;11.08;;;;;;;6.83;48.74;98702.75;1644719;86;21008;-80
2021/12/04 07:16:20;;;;;;;17.82;11.95;;;;;;;7.10;47.61;98700.27;1642384;86;21178;-80
2021/12/04 07:18:47;;;;;;;13.00;9.33;;;;;;;7.20;47.10;98699.59;1641538;86;20998;-81
2021/12/04 07:21:13;;;;;;;16.67;12.63;;;;;;;7.37;46.76;98691.97;1636407;86;20983;-68
2021/12/04 07:23:41;;;;;;;19.27;12.80;;;;;;;7.54;45.99;98691.41;1637607;86;21629;-70
2021/12/04 07:26:10;;;;;;;18.85;12.60;;;;;;;7.47;44.89;98692.60;1635756;86;21079;-63
2021/12/04 07:28:37;;;;;;;25.80;15.93;;;;;;;7.20;44.08;98689.01;1636755;86;22236;-76
2021/12/04 07:31:04;;;;;;;29.27;16.70;;;;;;;6.83;44.13;98682.92;1633626;86;20912;-63
2021/12/04 07:33:32;;;;;;;26.77;17.15;;;;;;;6.55;44.98;98684.23;1633005;86;20908;-65
2021/12/04 07:36:00;;;;;;;24.12;16.42;;;;;;;6.47;45.16;98681.09;1637645;86;21481;-69
2021/12/04 07:38:27;;;;;;;26.95;16.10;;;;;;;6.44;45.51;98679.30;1639577;86;21061;-65
2021/12/04 07:40:55;;;;;;;20.12;14.55;;;;;;;6.42;45.52;98677.29;1642183;86;21274;-64
2021/12/04 07:43:21;;;;;;;20.90;13.58;;;;;;;6.35;45.60;98681.58;1637107;86;21667;-66
2021/12/04 07:45:48;;;;;;;17.65;12.73;;;;;;;6.42;45.74;98674.64;1633004;86;20971;-65
2021/12/04 07:48:14;;;;;;;19.40;12.73;;;;;;;6.33;45.79;98675.16;1634079;86;21435;-66
2021/12/04 07:50:40;;;;;;;20.85;12.85;;;;;;;6.43;46.20;98673.18;1641854;86;20955;-66
2021/12/04 07:53:07;;;;;;;18.37;12.58;;;;;;;6.46;45.98;98668.06;1632309;86;21839;-68
2021/12/04 07:55:33;;;;;;;18.07;12.55;;;;;;;6.59;46.37;98660.48;1634295;86;21035;-68
2021/12/04 07:58:00;;;;;;;21.97;13.70;;;;;;;6.78;46.32;98663.59;1642785;86;21440;-68
2021/12/04 08:00:27;;;;;;;21.25;12.05;;;;;;;6.98;45.48;98660.13;1633707;86;21947;-72
2021/12/04 08:02:53;;;;;;;15.60;11.35;;;;;;;6.86;44.83;98661.97;1635667;86;21004;-68
2021/12/04 08:05:19;;;;;;;17.45;10.05;;;;;;;6.87;45.30;98656.98;1636722;86;21789;-67
2021/12/04 08:07:46;;;;;;;13.03;9.18;;;;;;;7.05;44.86;98659.78;1633897;86;20860;-68
2021/12/04 08:10:16;;;;;;;14.05;9.60;;;;;;;7.15;44.25;98656.45;1658585;85;21595;-69
2021/12/04 08:12:43;;;;;;;16.00;10.35;;;;;;;7.10;43.96;98656.62;1667153;85;21026;-67
2021/12/04 08:15:10;;;;;;;14.18;9.78;;;;;;;7.09;43.75;98657.64;1668236;85;20995;-64
2021/12/04 08:17:38;;;;;;;14.98;10.20;;;;;;;6.81;43.34;98663.27;1689963;83;21424;-67
2021/12/04 08:20:06;;;;;;;22.80;11.68;;;;;;;6.55;43.90;98668.38;1703905;83;21038;-65
2021/12/04 08:22:35;;;;;;;12.98;9.48;;;;;;;6.33;44.51;98662.43;1692716;83;21033;-66
2021/12/04 08:25:04;;;;;;;12.13;9.10;;;;;;;6.32;44.81;98657.64;1694917;83;21331;-68
2021/12/04 08:27:31;;;;;;;13.93;10.10;;;;;;;6.37;45.01;98657.14;1696630;83;20975;-67
2021/12/04 08:29:58;;;;;;;15.58;11.22;;;;;;;6.54;45.24;98651.73;1692252;83;21175;-67
2021/12/04 08:32:24;;;;;;;14.53;10.25;;;;;;;6.65;44.66;98651.86;1693224;83;21472;-68
2021/12/04 08:34:51;;;;;;;15.60;11.22;;;;;;;6.53;45.21;98651.39;1701532;83;20955;-66
2021/12/04 08:37:18;;;;;;;16.75;11.08;;;;;;;6.64;45.12;98647.09;1688983;83;21014;-67
2021/12/04 08:39:45;;;;;;;15.88;10.68;;;;;;;6.57;45.50;98640.80;1684029;83;21466;-70
2021/12/04 08:42:11;;;;;;;15.65;10.70;;;;;;;6.75;45.48;98648.59;1689922;83;21154;-70
2021/12/04 08:44:38;;;;;;;14.60;10.18;;;;;;;6.97;45.34;98641.77;1695041;83;20999;-69
2021/12/04 08:47:06;;;;;;;14.07;10.15;;;;;;;7.20;44.99;98634.28;1690033;83;21504;-67
2021/12/04 08:49:33;;;;;;;14.70;10.28;;;;;;;7.40;44.57;98630.25;1692309;83;21114;-68
2021/12/04 08:52:00;;;;;;;17.73;12.50;;;;;;;7.59;44.41;98622.41;1699195;83;20958;-68
2021/12/04 08:54:27;;;;;;;17.35;11.57;;;;;;;7.67;43.84;98630.32;1696434;83;21163;-68
2021/12/04 08:56:55;;;;;;;16.27;10.80;;;;;;;7.61;43.78;98627.55;1700175;83;20864;-67
2021/12/04 08:59:22;;;;;;;16.30;11.05;;;;;;;7.50;43.19;98617.33;1691384;83;21022;-71
2021/12/04 09:01:50;;;;;;;17.75;12.05;;;;;;;7.30;43.03;98623.53;1692132;83;20998;-73
2021/12/04 09:04:23;;;;;;;20.82;11.35;;;;;;;7.12;43.64;98625.53;1687547;83;21646;-68
2021/12/04 09:06:51;;;;;;;14.15;10.58;;;;;;;7.09;43.58;98620.61;1691339;83;21031;-68
2021/12/04 09:09:17;;;;;;;12.88;9.73;;;;;;;6.99;44.10;98622.09;1686849;83;21019;-69
2021/12/04 09:11:48;;;;;;;14.95;10.70;;;;;;;7.18;44.04;98610.32;1691533;83;20984;-69
2021/12/04 09:14:20;;;;;;;13.72;9.58;;;;;;;7.28;43.42;98613.10;1690415;83;20935;-68
2021/12/04 09:16:49;;;;;;;13.45;9.83;;;;;;;7.31;43.74;98608.80;1686917;83;21164;-68
2021/12/04 09:19:15;;;;;;;13.35;9.10;;;;;;;7.34;43.22;98602.34;1688416;83;21191;-68
2021/12/04 09:21:41;;;;;;;12.65;9.70;;;;;;;7.23;43.43;98613.28;1687371;83;21488;-70
2021/12/04 09:24:15;;;;;;;13.90;8.75;;;;;;;7.10;43.15;98599.77;1685714;83;20907;-68
2021/12/04 09:59:13;;;;;;;14.58;9.00;;;;;;;7.05;44.45;98581.77;1691416;83;21034;-68
2021/12/04 10:21:17;;;;;;;16.32;9.20;;;;;;;6.86;44.76;98550.92;1694866;83;21025;-70
2021/12/04 10:32:34;;;;;;;13.45;9.30;;;;;;;7.68;44.12;98539.33;1689538;83;21010;-69
2021/12/04 10:35:00;;;;;;;10.82;8.13;;;;;;;7.68;43.51;98535.84;1689593;83;21552;-69
2021/12/04 10:37:29;;;;;;;11.50;8.20;;;;;;;7.67;43.53;98536.34;1690762;83;20970;-69
2021/12/04 10:40:06;;;;;;;9.93;7.65;;;;;;;7.62;43.42;98527.27;1698048;83;21185;-68
2021/12/04 10:42:49;;;;;;;11.03;7.47;;;;;;;7.43;43.44;98529.36;1691025;83;20919;-68
2021/12/04 10:45:17;;;;;;;10.10;8.00;;;;;;;7.23;44.08;98531.27;1682560;83;20912;-70
2021/12/04 10:47:54;;;;;;;12.82;8.88;;;;;;;7.07;44.41;98526.88;1691135;83;20951;-71
2021/12/04 10:53:03;;;;;;;12.60;8.58;;;;;;;6.80;45.09;98533.39;1688383;83;21148;-71
2021/12/04 10:55:44;;;;;;;10.38;7.45;;;;;;;6.83;45.33;98512.40;1657485;84;21446;-74
2021/12/04 11:00:59;;;;;;;12.73;8.23;;;;;;;6.98;45.22;98508.08;1687172;83;21027;-69
2021/12/04 11:25:12;;;;;;;14.15;8.45;;;;;;;6.80;46.38;98488.98;1699818;83;21460;-71
2021/12/04 11:27:50;;;;;;;19.02;9.13;;;;;;;6.91;46.20;98480.66;1692179;83;21042;-67
2021/12/04 11:40:57;;;;;;;11.10;7.63;;;;;;;6.94;46.10;98468.41;1683728;83;20928;-68
2021/12/04 11:43:21;;;;;;;8.18;6.80;;;;;;;6.92;46.38;98464.30;1687489;83;21059;-73
2021/12/04 11:46:03;;;;;;;15.65;7.65;;;;;;;7.09;46.19;98465.37;1685379;83;21136;-70
2021/12/04 11:48:36;;;;;;;10.82;8.00;;;;;;;7.17;46.06;98453.42;1691446;83;21017;-70
2021/12/04 11:51:05;;;;;;;14.73;8.53;;;;;;;7.16;45.95;98453.13;1686746;83;21556;-65
2021/12/04 11:53:32;;;;;;;12.23;7.50;;;;;;;7.18;45.80;98451.61;1688392;84;20967;-75
2021/12/04 11:55:58;;;;;;;9.70;6.62;;;;;;;7.20;45.89;98446.47;1686440;83;21027;-62
2021/12/04 11:58:31;;;;;;;8.73;6.95;;;;;;;7.25;45.63;98441.98;1689493;83;21161;-69
2021/12/04 12:01:00;;;;;;;10.53;6.10;;;;;;;7.30;45.72;98439.66;1686828;83;20998;-68
2021/12/04 12:03:29;;;;;;;8.65;6.55;;;;;;;7.17;45.62;98431.47;1686039;84;21627;-71
2021/12/04 12:06:00;;;;;;;9.80;6.45;;;;;;;7.07;45.68;98434.31;1689999;83;20985;-70
2021/12/04 12:08:34;;;;;;;10.85;6.42;;;;;;;6.84;45.96;98436.91;1689606;83;21060;-74
2021/12/04 12:11:10;;;;;;;6.95;5.65;;;;;;;6.69;47.81;98432.50;1688633;83;21497;-72
2021/12/04 12:13:48;;;;;;;10.00;6.15;;;;;;;6.42;47.43;98429.77;1691603;83;21046;-70
2021/12/04 12:16:25;;;;;;;9.65;5.92;;;;;;;6.27;47.82;98434.11;1687983;83;20976;-75
2021/12/04 12:19:01;;;;;;;9.80;6.62;;;;;;;6.22;47.79;98439.08;1685288;83;21075;-71
2021/12/04 12:21:48;;;;;;;10.15;6.05;;;;;;;6.16;47.76;98433.96;1685698;84;21110;-74
2021/12/04 12:27:25;;;;;;;9.60;5.95;;;;;;;5.89;48.53;98418.47;1685768;83;21078;-76
2021/12/04 12:38:52;;;;;;;10.48;6.37;;;;;;;5.46;49.39;98414.81;1692099;83;21200;-70
2021/12/04 12:41:42;;;;;;;9.63;6.75;;;;;;;5.41;49.58;98412.67;1693323;83;21022;-72
2021/12/04 12:44:27;;;;;;;8.30;6.22;;;;;;;5.13;50.08;98407.85;1691660;83;21041;-69
2021/12/04 12:46:57;;;;;;;9.73;6.92;;;;;;;4.87;50.71;98411.42;1690801;83;21061;-67
2021/12/04 12:49:44;;;;;;;11.63;6.60;;;;;;;4.85;51.03;98405.45;1681420;85;20911;-70
2021/12/04 12:52:16;;;;;;;9.58;6.95;;;;;;;4.90;51.26;98404.48;1682260;85;21198;-71
2021/12/04 12:54:59;;;;;;;13.28;7.28;;;;;;;4.97;51.64;98405.52;1686509;85;20947;-61
2021/12/04 12:57:32;;;;;;;9.65;7.22;;;;;;;4.99;52.11;98406.17;1683916;83;20884;-65
2021/12/04 13:11:46;;;;;;;16.65;8.35;;;;;;;4.12;53.87;98408.25;1687961;83;20963;-64
2021/12/04 13:14:27;;;;;;;13.28;7.90;;;;;;;3.95;55.11;98416.20;1686053;84;21074;-67
2021/12/04 13:17:11;;;;;;;13.00;7.58;;;;;;;3.82;55.19;98425.82;1684158;85;21015;-66
2021/12/04 13:19:41;;;;;;;12.47;7.60;;;;;;;3.74;55.61;98421.81;1682835;85;21151;-62
2021/12/04 13:22:11;;;;;;;11.00;7.35;;;;;;;3.70;55.82;98423.91;1678552;83;21580;-63
2021/12/04 13:24:40;;;;;;;11.90;7.22;;;;;;;3.54;56.20;98425.12;1676815;83;21009;-62
2021/12/04 13:29:49;;;;;;;10.53;7.17;;;;;;;3.31;56.53;98429.16;1681864;83;21033;-68
2021/12/04 13:32:19;;;;;;;13.30;7.03;;;;;;;3.21;57.05;98415.26;1679853;83;21865;-69
2021/12/04 13:34:46;;;;;;;10.78;7.42;;;;;;;3.06;57.53;98416.27;1686048;85;20975;-67
2021/12/04 13:37:13;;;;;;;13.78;7.70;;;;;;;2.97;57.85;98414.52;1677725;83;21058;-65
2021/12/04 13:39:41;;;;;;;11.08;7.55;;;;;;;2.84;58.45;98419.30;1679968;83;21634;-65
2021/12/04 13:42:07;;;;;;;9.98;7.35;;;;;;;2.78;58.63;98418.59;1675964;83;21057;-65
2021/12/04 13:44:34;;;;;;;11.12;7.08;;;;;;;2.70;58.85;98410.63;1678245;83;21375;-64
2021/12/04 13:47:05;;;;;;;9.28;6.55;;;;;;;2.66;59.27;98416.33;1686562;85;20955;-67
2021/12/04 13:49:47;;;;;;;14.58;7.62;;;;;;;2.53;59.66;98422.40;1699263;83;20951;-64
2021/12/04 13:52:12;;;;;;;11.50;7.60;;;;;;;2.45;59.96;98410.00;1698637;83;21108;-66
2021/12/04 13:54:49;;;;;;;10.98;7.33;;;;;;;2.31;60.25;98407.36;1698342;83;21516;-62
2021/12/04 13:57:16;;;;;;;10.30;7.72;;;;;;;2.17;60.64;98412.23;1695298;83;21159;-61
2021/12/04 13:59:43;;;;;;;8.40;7.45;;;;;;;2.03;61.13;98400.90;1697452;83;21429;-64
2021/12/04 14:02:26;;;;;;;10.45;7.33;;;;;;;1.97;61.23;98394.90;1702646;83;21045;-62
2021/12/04 14:05:13;;;;;;;10.25;7.40;;;;;;;1.92;61.47;98390.09;1704771;83;20947;-64
2021/12/04 14:07:56;;;;;;;13.08;8.08;;;;;;;1.80;61.81;98389.89;1700734;83;20942;-62
2021/12/04 14:10:30;;;;;;;12.23;7.95;;;;;;;1.74;61.97;98388.69;1697629;83;21177;-63
2021/12/04 14:13:01;;;;;;;12.75;8.73;;;;;;;1.70;62.11;98382.05;1705294;83;20931;-60
2021/12/04 14:15:28;;;;;;;15.30;8.88;;;;;;;1.71;62.16;98390.27;1697255;83;20975;-63
2021/12/04 14:18:05;;;;;;;10.58;8.75;;;;;;;1.64;62.52;98387.85;1699504;83;20971;-67
2021/12/04 14:20:33;;;;;;;15.60;8.98;;;;;;;1.62;62.70;98392.89;1696871;83;20923;-67
2021/12/04 14:22:59;;;;;;;12.90;9.18;;;;;;;1.61;62.73;98380.30;1715597;83;21917;-68
2021/12/04 14:25:27;;;;;;;12.28;9.18;;;;;;;1.61;62.95;98384.70;1702553;83;20907;-68
2021/12/04 14:27:55;;;;;;;13.75;9.50;;;;;;;1.59;63.00;98382.72;1701734;83;20903;-66
2021/12/04 14:30:25;;;;;;;10.88;8.73;;;;;;;1.54;63.11;98377.06;1701644;83;21071;-71
2021/12/04 14:32:55;;;;;;;10.75;8.48;;;;;;;1.51;63.28;98379.96;1699120;83;20963;-65
2021/12/04 14:35:31;;;;;;;9.68;7.42;;;;;;;1.48;63.63;98380.23;1693181;83;21172;-66
2021/12/04 14:37:58;;;;;;;13.05;9.13;;;;;;;1.42;63.76;98378.16;1701206;83;20997;-65
2021/12/04 14:40:34;;;;;;;11.18;8.45;;;;;;;1.36;63.99;98375.61;1699815;83;20987;-65
2021/12/04 14:43:04;;;;;;;16.42;9.58;;;;;;;1.34;64.30;98368.86;1705864;83;21011;-67
2021/12/04 14:45:33;;;;;;;12.95;8.43;;;;;;;1.32;64.43;98369.02;1702052;83;20950;-67
2021/12/04 14:48:12;;;;;;;12.55;8.85;;;;;;;1.30;64.26;98355.23;1698519;83;21200;-65